sensor_id;sensor_type;location;lat;lon;timestamp;P1;durP1;ratioP1;P2;durP2;ratioP2
13943;SDS011;7044;53.286;8.534;2023-08-31T00:01:54;5.07;;;2.00;;
13943;SDS011;7044;53.286;8.534;2023-08-31T00:04:21;2.67;;;1.98;;
13943;SDS011;7044;53.286;8.534;2023-08-31T00:06:48;9.38;;;2.40;;
13943;SDS011;7044;53.286;8.534;2023-08-31T00:09:15;3.83;;;2.10;;
13943;SDS011;7044;53.286;8.534;2023-08-31T00:11:41;3.20;;;2.17;;
13943;SDS011;7044;53.286;8.534;2023-08-31T00:14:08;1.80;;;1.70;;
13943;SDS011;7044;53.286;8.534;2023-08-31T00:16:35;3.45;;;2.10;;
13943;SDS011;7044;53.286;8.534;2023-08-31T00:19:04;5.32;;;2.55;;
13943;SDS011;7044;53.286;8.534;2023-08-31T00:21:31;8.05;;;2.00;;
13943;SDS011;7044;53.286;8.534;2023-08-31T00:23:58;4.13;;;2.13;;
13943;SDS011;7044;53.286;8.534;2023-08-31T00:26:24;10.77;;;2.00;;
13943;SDS011;7044;53.286;8.534;2023-08-31T00:28:51;2.70;;;1.95;;
13943;SDS011;7044;53.286;8.534;2023-08-31T00:31:18;2.58;;;2.03;;
13943;SDS011;7044;53.286;8.534;2023-08-31T00:33:46;3.72;;;2.40;;
13943;SDS011;7044;53.286;8.534;2023-08-31T00:36:14;3.80;;;1.85;;
13943;SDS011;7044;53.286;8.534;2023-08-31T00:38:43;3.00;;;2.20;;
13943;SDS011;7044;53.286;8.534;2023-08-31T00:41:10;4.35;;;1.88;;
13943;SDS011;7044;53.286;8.534;2023-08-31T00:43:37;4.55;;;1.92;;
13943;SDS011;7044;53.286;8.534;2023-08-31T00:46:04;4.15;;;2.33;;
13943;SDS011;7044;53.286;8.534;2023-08-31T00:48:31;3.90;;;1.88;;
13943;SDS011;7044;53.286;8.534;2023-08-31T00:50:58;4.40;;;2.13;;
13943;SDS011;7044;53.286;8.534;2023-08-31T00:53:27;2.75;;;1.90;;
13943;SDS011;7044;53.286;8.534;2023-08-31T00:55:55;2.58;;;1.70;;
13943;SDS011;7044;53.286;8.534;2023-08-31T00:58:22;5.00;;;1.77;;
13943;SDS011;7044;53.286;8.534;2023-08-31T01:00:50;2.65;;;2.03;;
13943;SDS011;7044;53.286;8.534;2023-08-31T01:03:29;3.90;;;1.77;;
13943;SDS011;7044;53.286;8.534;2023-08-31T01:06:07;3.35;;;1.70;;
13943;SDS011;7044;53.286;8.534;2023-08-31T01:08:43;2.78;;;1.75;;
13943;SDS011;7044;53.286;8.534;2023-08-31T01:11:19;2.17;;;1.80;;
13943;SDS011;7044;53.286;8.534;2023-08-31T01:13:51;2.00;;;1.75;;
13943;SDS011;7044;53.286;8.534;2023-08-31T01:16:20;2.92;;;1.65;;
13943;SDS011;7044;53.286;8.534;2023-08-31T01:18:49;3.97;;;1.50;;
13943;SDS011;7044;53.286;8.534;2023-08-31T01:21:20;2.92;;;1.65;;
13943;SDS011;7044;53.286;8.534;2023-08-31T01:23:52;1.88;;;1.70;;
13943;SDS011;7044;53.286;8.534;2023-08-31T01:26:20;2.90;;;1.80;;
13943;SDS011;7044;53.286;8.534;2023-08-31T01:28:48;4.15;;;1.98;;
13943;SDS011;7044;53.286;8.534;2023-08-31T01:31:15;4.13;;;1.75;;
13943;SDS011;7044;53.286;8.534;2023-08-31T01:33:43;9.57;;;2.10;;
13943;SDS011;7044;53.286;8.534;2023-08-31T01:36:13;4.40;;;2.08;;
13943;SDS011;7044;53.286;8.534;2023-08-31T01:38:45;2.30;;;1.77;;
13943;SDS011;7044;53.286;8.534;2023-08-31T01:41:18;4.60;;;2.00;;
13943;SDS011;7044;53.286;8.534;2023-08-31T01:43:47;10.10;;;2.38;;
13943;SDS011;7044;53.286;8.534;2023-08-31T01:46:16;2.85;;;1.75;;
13943;SDS011;7044;53.286;8.534;2023-08-31T01:48:43;2.55;;;1.80;;
13943;SDS011;7044;53.286;8.534;2023-08-31T01:51:10;2.92;;;1.83;;
13943;SDS011;7044;53.286;8.534;2023-08-31T01:53:37;3.28;;;1.80;;
13943;SDS011;7044;53.286;8.534;2023-08-31T01:56:04;5.10;;;1.92;;
13943;SDS011;7044;53.286;8.534;2023-08-31T01:58:33;4.80;;;1.92;;
13943;SDS011;7044;53.286;8.534;2023-08-31T02:01:00;3.13;;;1.75;;
13943;SDS011;7044;53.286;8.534;2023-08-31T02:03:27;6.78;;;1.98;;
13943;SDS011;7044;53.286;8.534;2023-08-31T02:05:54;2.25;;;1.58;;
13943;SDS011;7044;53.286;8.534;2023-08-31T02:08:20;5.00;;;1.70;;
13943;SDS011;7044;53.286;8.534;2023-08-31T02:10:47;4.03;;;2.00;;
13943;SDS011;7044;53.286;8.534;2023-08-31T02:13:14;2.45;;;1.95;;
13943;SDS011;7044;53.286;8.534;2023-08-31T02:15:43;3.55;;;1.77;;
13943;SDS011;7044;53.286;8.534;2023-08-31T02:18:10;2.83;;;1.85;;
13943;SDS011;7044;53.286;8.534;2023-08-31T02:20:36;3.20;;;1.88;;
13943;SDS011;7044;53.286;8.534;2023-08-31T02:23:04;6.10;;;2.10;;
13943;SDS011;7044;53.286;8.534;2023-08-31T02:25:30;4.70;;;1.80;;
13943;SDS011;7044;53.286;8.534;2023-08-31T02:27:58;4.35;;;1.40;;
13943;SDS011;7044;53.286;8.534;2023-08-31T02:30:25;5.43;;;1.88;;
13943;SDS011;7044;53.286;8.534;2023-08-31T02:32:53;3.25;;;2.05;;
13943;SDS011;7044;53.286;8.534;2023-08-31T02:35:20;3.40;;;2.10;;
13943;SDS011;7044;53.286;8.534;2023-08-31T02:37:47;6.80;;;1.60;;
13943;SDS011;7044;53.286;8.534;2023-08-31T02:40:14;4.05;;;1.83;;
13943;SDS011;7044;53.286;8.534;2023-08-31T02:42:41;3.45;;;2.03;;
13943;SDS011;7044;53.286;8.534;2023-08-31T02:45:08;2.88;;;1.90;;
13943;SDS011;7044;53.286;8.534;2023-08-31T02:47:35;4.47;;;2.00;;
13943;SDS011;7044;53.286;8.534;2023-08-31T02:50:04;2.88;;;1.90;;
13943;SDS011;7044;53.286;8.534;2023-08-31T02:52:31;5.20;;;2.13;;
13943;SDS011;7044;53.286;8.534;2023-08-31T02:54:58;5.53;;;2.00;;
13943;SDS011;7044;53.286;8.534;2023-08-31T02:57:25;2.75;;;2.05;;
13943;SDS011;7044;53.286;8.534;2023-08-31T02:59:52;2.95;;;1.88;;
13943;SDS011;7044;53.286;8.534;2023-08-31T03:02:19;10.75;;;1.90;;
13943;SDS011;7044;53.286;8.534;2023-08-31T03:04:47;5.20;;;2.00;;
13943;SDS011;7044;53.286;8.534;2023-08-31T03:07:16;4.18;;;1.92;;
13943;SDS011;7044;53.286;8.534;2023-08-31T03:09:43;4.20;;;1.60;;
13943;SDS011;7044;53.286;8.534;2023-08-31T03:12:14;2.10;;;1.90;;
13943;SDS011;7044;53.286;8.534;2023-08-31T03:14:41;2.78;;;2.28;;
13943;SDS011;7044;53.286;8.534;2023-08-31T03:17:08;3.20;;;1.98;;
13943;SDS011;7044;53.286;8.534;2023-08-31T03:19:34;2.80;;;1.95;;
13943;SDS011;7044;53.286;8.534;2023-08-31T03:22:01;4.40;;;2.30;;
13943;SDS011;7044;53.286;8.534;2023-08-31T03:24:29;3.75;;;2.03;;
13943;SDS011;7044;53.286;8.534;2023-08-31T03:26:58;3.80;;;2.10;;
13943;SDS011;7044;53.286;8.534;2023-08-31T03:29:24;4.57;;;2.17;;
13943;SDS011;7044;53.286;8.534;2023-08-31T03:31:53;2.10;;;1.77;;
13943;SDS011;7044;53.286;8.534;2023-08-31T03:34:20;2.40;;;1.70;;
13943;SDS011;7044;53.286;8.534;2023-08-31T03:36:47;3.05;;;1.77;;
13943;SDS011;7044;53.286;8.534;2023-08-31T03:39:15;3.70;;;2.10;;
13943;SDS011;7044;53.286;8.534;2023-08-31T03:41:43;4.80;;;2.10;;
13943;SDS011;7044;53.286;8.534;2023-08-31T03:44:10;3.25;;;1.67;;
13943;SDS011;7044;53.286;8.534;2023-08-31T03:46:37;3.72;;;1.88;;
13943;SDS011;7044;53.286;8.534;2023-08-31T03:49:03;4.05;;;2.13;;
13943;SDS011;7044;53.286;8.534;2023-08-31T03:51:30;6.13;;;2.00;;
13943;SDS011;7044;53.286;8.534;2023-08-31T03:53:57;5.07;;;2.00;;
13943;SDS011;7044;53.286;8.534;2023-08-31T03:56:24;3.97;;;1.92;;
13943;SDS011;7044;53.286;8.534;2023-08-31T03:58:53;4.60;;;2.40;;
13943;SDS011;7044;53.286;8.534;2023-08-31T04:01:20;4.70;;;2.95;;
13943;SDS011;7044;53.286;8.534;2023-08-31T04:03:47;5.88;;;3.00;;
13943;SDS011;7044;53.286;8.534;2023-08-31T04:06:13;4.10;;;2.65;;
13943;SDS011;7044;53.286;8.534;2023-08-31T04:08:40;3.55;;;2.70;;
13943;SDS011;7044;53.286;8.534;2023-08-31T04:11:07;3.47;;;3.03;;
13943;SDS011;7044;53.286;8.534;2023-08-31T04:13:34;3.88;;;3.00;;
13943;SDS011;7044;53.286;8.534;2023-08-31T04:16:02;5.80;;;3.00;;
13943;SDS011;7044;53.286;8.534;2023-08-31T04:18:29;4.72;;;2.90;;
13943;SDS011;7044;53.286;8.534;2023-08-31T04:20:56;9.20;;;2.78;;
13943;SDS011;7044;53.286;8.534;2023-08-31T04:23:24;6.85;;;3.03;;
13943;SDS011;7044;53.286;8.534;2023-08-31T04:25:51;3.38;;;2.92;;
13943;SDS011;7044;53.286;8.534;2023-08-31T04:28:18;3.22;;;2.65;;
13943;SDS011;7044;53.286;8.534;2023-08-31T04:30:45;3.85;;;3.15;;
13943;SDS011;7044;53.286;8.534;2023-08-31T04:33:13;5.28;;;2.70;;
13943;SDS011;7044;53.286;8.534;2023-08-31T04:35:40;9.02;;;3.25;;
13943;SDS011;7044;53.286;8.534;2023-08-31T04:38:07;6.90;;;3.30;;
13943;SDS011;7044;53.286;8.534;2023-08-31T04:40:33;4.40;;;2.80;;
13943;SDS011;7044;53.286;8.534;2023-08-31T04:43:01;3.35;;;2.72;;
13943;SDS011;7044;53.286;8.534;2023-08-31T04:45:29;5.60;;;3.05;;
13943;SDS011;7044;53.286;8.534;2023-08-31T04:47:55;5.93;;;2.97;;
13943;SDS011;7044;53.286;8.534;2023-08-31T04:50:24;7.45;;;3.10;;
13943;SDS011;7044;53.286;8.534;2023-08-31T04:52:51;5.43;;;3.15;;
13943;SDS011;7044;53.286;8.534;2023-08-31T04:55:20;3.58;;;2.95;;
13943;SDS011;7044;53.286;8.534;2023-08-31T04:57:47;6.47;;;3.28;;
13943;SDS011;7044;53.286;8.534;2023-08-31T05:00:15;5.13;;;2.70;;
13943;SDS011;7044;53.286;8.534;2023-08-31T05:02:42;4.25;;;3.13;;
13943;SDS011;7044;53.286;8.534;2023-08-31T05:05:09;3.67;;;2.78;;
13943;SDS011;7044;53.286;8.534;2023-08-31T05:07:37;7.93;;;3.30;;
13943;SDS011;7044;53.286;8.534;2023-08-31T05:10:05;4.07;;;2.78;;
13943;SDS011;7044;53.286;8.534;2023-08-31T05:12:32;5.70;;;3.50;;
13943;SDS011;7044;53.286;8.534;2023-08-31T05:14:59;6.65;;;3.17;;
13943;SDS011;7044;53.286;8.534;2023-08-31T05:17:26;4.70;;;3.15;;
13943;SDS011;7044;53.286;8.534;2023-08-31T05:19:53;4.50;;;2.78;;
13943;SDS011;7044;53.286;8.534;2023-08-31T05:22:20;7.55;;;3.08;;
13943;SDS011;7044;53.286;8.534;2023-08-31T05:24:48;4.90;;;2.92;;
13943;SDS011;7044;53.286;8.534;2023-08-31T05:27:15;8.57;;;3.58;;
13943;SDS011;7044;53.286;8.534;2023-08-31T05:29:41;3.13;;;2.65;;
13943;SDS011;7044;53.286;8.534;2023-08-31T05:32:08;11.68;;;3.13;;
13943;SDS011;7044;53.286;8.534;2023-08-31T05:34:34;7.85;;;4.07;;
13943;SDS011;7044;53.286;8.534;2023-08-31T05:37:04;7.55;;;4.65;;
13943;SDS011;7044;53.286;8.534;2023-08-31T05:39:31;11.40;;;7.50;;
13943;SDS011;7044;53.286;8.534;2023-08-31T05:41:59;14.52;;;8.60;;
13943;SDS011;7044;53.286;8.534;2023-08-31T05:44:26;4.20;;;2.78;;
13943;SDS011;7044;53.286;8.534;2023-08-31T05:46:53;5.50;;;3.83;;
13943;SDS011;7044;53.286;8.534;2023-08-31T05:49:20;6.85;;;5.05;;
13943;SDS011;7044;53.286;8.534;2023-08-31T05:51:46;23.58;;;4.38;;
13943;SDS011;7044;53.286;8.534;2023-08-31T05:54:13;9.57;;;4.13;;
13943;SDS011;7044;53.286;8.534;2023-08-31T05:56:40;7.93;;;3.65;;
13943;SDS011;7044;53.286;8.534;2023-08-31T05:59:09;7.95;;;3.90;;
13943;SDS011;7044;53.286;8.534;2023-08-31T06:01:35;4.78;;;3.20;;
13943;SDS011;7044;53.286;8.534;2023-08-31T06:04:02;4.90;;;3.75;;
13943;SDS011;7044;53.286;8.534;2023-08-31T06:06:30;4.00;;;3.60;;
13943;SDS011;7044;53.286;8.534;2023-08-31T06:08:57;4.90;;;3.67;;
13943;SDS011;7044;53.286;8.534;2023-08-31T06:11:24;5.28;;;3.75;;
13943;SDS011;7044;53.286;8.534;2023-08-31T06:13:51;7.68;;;3.72;;
13943;SDS011;7044;53.286;8.534;2023-08-31T06:16:19;5.50;;;4.03;;
13943;SDS011;7044;53.286;8.534;2023-08-31T06:18:46;10.32;;;3.72;;
13943;SDS011;7044;53.286;8.534;2023-08-31T06:21:12;4.82;;;3.83;;
13943;SDS011;7044;53.286;8.534;2023-08-31T06:23:39;6.55;;;3.95;;
13943;SDS011;7044;53.286;8.534;2023-08-31T06:26:06;5.82;;;3.70;;
13943;SDS011;7044;53.286;8.534;2023-08-31T06:28:33;6.70;;;4.10;;
13943;SDS011;7044;53.286;8.534;2023-08-31T06:30:59;8.55;;;4.22;;
13943;SDS011;7044;53.286;8.534;2023-08-31T06:33:28;8.27;;;4.40;;
13943;SDS011;7044;53.286;8.534;2023-08-31T06:35:54;4.40;;;4.00;;
13943;SDS011;7044;53.286;8.534;2023-08-31T06:38:22;7.63;;;4.18;;
13943;SDS011;7044;53.286;8.534;2023-08-31T06:40:49;6.18;;;4.18;;
13943;SDS011;7044;53.286;8.534;2023-08-31T06:43:15;6.03;;;4.70;;
13943;SDS011;7044;53.286;8.534;2023-08-31T06:45:42;9.15;;;4.88;;
13943;SDS011;7044;53.286;8.534;2023-08-31T06:48:09;7.32;;;5.22;;
13943;SDS011;7044;53.286;8.534;2023-08-31T06:50:37;8.85;;;5.60;;
13943;SDS011;7044;53.286;8.534;2023-08-31T06:53:04;7.53;;;4.97;;
13943;SDS011;7044;53.286;8.534;2023-08-31T06:55:31;5.70;;;4.38;;
13943;SDS011;7044;53.286;8.534;2023-08-31T06:57:58;6.55;;;4.45;;
13943;SDS011;7044;53.286;8.534;2023-08-31T07:00:25;5.63;;;4.40;;
13943;SDS011;7044;53.286;8.534;2023-08-31T07:02:52;7.00;;;4.50;;
13943;SDS011;7044;53.286;8.534;2023-08-31T07:05:19;6.45;;;4.00;;
13943;SDS011;7044;53.286;8.534;2023-08-31T07:07:52;8.43;;;4.25;;
13943;SDS011;7044;53.286;8.534;2023-08-31T07:10:19;6.15;;;4.25;;
13943;SDS011;7044;53.286;8.534;2023-08-31T07:12:46;7.47;;;4.30;;
13943;SDS011;7044;53.286;8.534;2023-08-31T07:15:13;5.22;;;4.05;;
13943;SDS011;7044;53.286;8.534;2023-08-31T07:17:39;8.90;;;4.28;;
13943;SDS011;7044;53.286;8.534;2023-08-31T07:20:07;6.78;;;4.43;;
13943;SDS011;7044;53.286;8.534;2023-08-31T07:22:35;6.93;;;4.28;;
13943;SDS011;7044;53.286;8.534;2023-08-31T07:25:05;4.60;;;4.18;;
13943;SDS011;7044;53.286;8.534;2023-08-31T07:27:33;7.25;;;3.97;;
13943;SDS011;7044;53.286;8.534;2023-08-31T07:29:59;7.22;;;4.60;;
13943;SDS011;7044;53.286;8.534;2023-08-31T07:32:28;9.48;;;4.53;;
13943;SDS011;7044;53.286;8.534;2023-08-31T07:34:54;6.15;;;4.38;;
13943;SDS011;7044;53.286;8.534;2023-08-31T07:37:21;11.98;;;3.83;;
13943;SDS011;7044;53.286;8.534;2023-08-31T07:39:48;5.63;;;4.25;;
13943;SDS011;7044;53.286;8.534;2023-08-31T07:42:16;6.22;;;4.20;;
13943;SDS011;7044;53.286;8.534;2023-08-31T07:44:43;5.40;;;3.63;;
13943;SDS011;7044;53.286;8.534;2023-08-31T07:47:10;4.53;;;3.58;;
13943;SDS011;7044;53.286;8.534;2023-08-31T07:49:37;7.47;;;4.43;;
13943;SDS011;7044;53.286;8.534;2023-08-31T07:52:04;5.82;;;3.80;;
13943;SDS011;7044;53.286;8.534;2023-08-31T07:54:31;5.72;;;3.55;;
13943;SDS011;7044;53.286;8.534;2023-08-31T07:56:58;7.05;;;3.72;;
13943;SDS011;7044;53.286;8.534;2023-08-31T07:59:26;7.18;;;3.78;;
13943;SDS011;7044;53.286;8.534;2023-08-31T08:01:53;5.43;;;3.90;;
13943;SDS011;7044;53.286;8.534;2023-08-31T08:04:20;4.22;;;3.15;;
13943;SDS011;7044;53.286;8.534;2023-08-31T08:06:48;6.65;;;4.30;;
13943;SDS011;7044;53.286;8.534;2023-08-31T08:09:15;7.65;;;4.03;;
13943;SDS011;7044;53.286;8.534;2023-08-31T08:11:42;6.97;;;4.13;;
13943;SDS011;7044;53.286;8.534;2023-08-31T08:14:09;7.97;;;3.47;;
13943;SDS011;7044;53.286;8.534;2023-08-31T08:16:37;6.00;;;3.38;;
13943;SDS011;7044;53.286;8.534;2023-08-31T08:19:05;4.80;;;3.55;;
13943;SDS011;7044;53.286;8.534;2023-08-31T08:21:32;5.93;;;3.58;;
13943;SDS011;7044;53.286;8.534;2023-08-31T08:23:59;6.05;;;3.40;;
13943;SDS011;7044;53.286;8.534;2023-08-31T08:26:26;5.95;;;3.22;;
13943;SDS011;7044;53.286;8.534;2023-08-31T08:28:53;7.00;;;3.42;;
13943;SDS011;7044;53.286;8.534;2023-08-31T08:31:20;6.40;;;3.45;;
13943;SDS011;7044;53.286;8.534;2023-08-31T08:33:48;4.55;;;3.40;;
13943;SDS011;7044;53.286;8.534;2023-08-31T08:36:15;6.88;;;3.33;;
13943;SDS011;7044;53.286;8.534;2023-08-31T08:38:41;3.45;;;3.13;;
13943;SDS011;7044;53.286;8.534;2023-08-31T08:41:08;7.55;;;3.40;;
13943;SDS011;7044;53.286;8.534;2023-08-31T08:43:36;3.50;;;3.20;;
13943;SDS011;7044;53.286;8.534;2023-08-31T08:46:07;5.18;;;3.40;;
13943;SDS011;7044;53.286;8.534;2023-08-31T08:48:35;5.25;;;3.08;;
13943;SDS011;7044;53.286;8.534;2023-08-31T08:51:04;5.53;;;3.83;;
13943;SDS011;7044;53.286;8.534;2023-08-31T08:53:31;4.13;;;3.10;;
13943;SDS011;7044;53.286;8.534;2023-08-31T08:55:58;3.85;;;3.40;;
13943;SDS011;7044;53.286;8.534;2023-08-31T08:58:24;4.28;;;3.50;;
13943;SDS011;7044;53.286;8.534;2023-08-31T09:00:51;4.53;;;3.00;;
13943;SDS011;7044;53.286;8.534;2023-08-31T09:03:21;5.18;;;3.30;;
13943;SDS011;7044;53.286;8.534;2023-08-31T09:05:48;3.60;;;2.97;;
13943;SDS011;7044;53.286;8.534;2023-08-31T09:08:16;4.68;;;3.00;;
13943;SDS011;7044;53.286;8.534;2023-08-31T09:10:51;5.55;;;3.20;;
13943;SDS011;7044;53.286;8.534;2023-08-31T09:13:17;6.43;;;3.83;;
13943;SDS011;7044;53.286;8.534;2023-08-31T09:15:45;5.70;;;3.55;;
13943;SDS011;7044;53.286;8.534;2023-08-31T09:18:16;3.78;;;3.28;;
13943;SDS011;7044;53.286;8.534;2023-08-31T09:20:49;3.38;;;3.08;;
13943;SDS011;7044;53.286;8.534;2023-08-31T09:23:17;5.00;;;3.20;;
13943;SDS011;7044;53.286;8.534;2023-08-31T09:25:45;4.82;;;3.40;;
13943;SDS011;7044;53.286;8.534;2023-08-31T09:28:13;4.43;;;3.42;;
13943;SDS011;7044;53.286;8.534;2023-08-31T09:30:41;5.35;;;3.83;;
13943;SDS011;7044;53.286;8.534;2023-08-31T09:33:08;6.65;;;3.53;;
13943;SDS011;7044;53.286;8.534;2023-08-31T09:35:39;2.78;;;2.58;;
13943;SDS011;7044;53.286;8.534;2023-08-31T09:38:07;4.25;;;3.03;;
13943;SDS011;7044;53.286;8.534;2023-08-31T09:40:37;7.55;;;3.47;;
13943;SDS011;7044;53.286;8.534;2023-08-31T09:43:03;8.10;;;3.30;;
13943;SDS011;7044;53.286;8.534;2023-08-31T09:45:31;4.22;;;2.45;;
13943;SDS011;7044;53.286;8.534;2023-08-31T09:47:59;5.72;;;2.60;;
13943;SDS011;7044;53.286;8.534;2023-08-31T09:50:28;4.57;;;2.63;;
13943;SDS011;7044;53.286;8.534;2023-08-31T09:52:58;4.15;;;2.30;;
13943;SDS011;7044;53.286;8.534;2023-08-31T09:55:29;4.78;;;1.98;;
13943;SDS011;7044;53.286;8.534;2023-08-31T09:57:58;3.67;;;1.90;;
13943;SDS011;7044;53.286;8.534;2023-08-31T10:00:26;6.88;;;2.28;;
13943;SDS011;7044;53.286;8.534;2023-08-31T10:02:54;3.90;;;2.42;;
13943;SDS011;7044;53.286;8.534;2023-08-31T10:05:23;4.45;;;2.00;;
13943;SDS011;7044;53.286;8.534;2023-08-31T10:07:50;4.93;;;2.30;;
13943;SDS011;7044;53.286;8.534;2023-08-31T10:10:18;2.70;;;2.05;;
13943;SDS011;7044;53.286;8.534;2023-08-31T10:12:45;5.97;;;2.00;;
13943;SDS011;7044;53.286;8.534;2023-08-31T10:15:16;6.25;;;1.80;;
13943;SDS011;7044;53.286;8.534;2023-08-31T10:17:44;3.10;;;1.60;;
13943;SDS011;7044;53.286;8.534;2023-08-31T10:20:11;5.60;;;1.50;;
13943;SDS011;7044;53.286;8.534;2023-08-31T10:22:40;2.15;;;1.50;;
13943;SDS011;7044;53.286;8.534;2023-08-31T10:25:07;4.55;;;1.70;;
13943;SDS011;7044;53.286;8.534;2023-08-31T10:27:36;3.85;;;1.45;;
13943;SDS011;7044;53.286;8.534;2023-08-31T10:30:14;2.78;;;1.50;;
13943;SDS011;7044;53.286;8.534;2023-08-31T10:33:01;3.50;;;1.77;;
13943;SDS011;7044;53.286;8.534;2023-08-31T10:35:47;1.95;;;1.17;;
13943;SDS011;7044;53.286;8.534;2023-08-31T10:38:15;2.92;;;1.70;;
13943;SDS011;7044;53.286;8.534;2023-08-31T10:40:43;1.80;;;1.50;;
13943;SDS011;7044;53.286;8.534;2023-08-31T10:43:28;5.85;;;1.75;;
13943;SDS011;7044;53.286;8.534;2023-08-31T10:46:25;4.50;;;1.30;;
13943;SDS011;7044;53.286;8.534;2023-08-31T10:48:57;1.83;;;1.27;;
13943;SDS011;7044;53.286;8.534;2023-08-31T10:51:25;2.13;;;1.15;;
13943;SDS011;7044;53.286;8.534;2023-08-31T10:54:03;1.30;;;1.08;;
13943;SDS011;7044;53.286;8.534;2023-08-31T10:56:31;5.57;;;1.48;;
13943;SDS011;7044;53.286;8.534;2023-08-31T10:58:58;2.67;;;1.10;;
13943;SDS011;7044;53.286;8.534;2023-08-31T11:04:20;2.80;;;0.90;;
13943;SDS011;7044;53.286;8.534;2023-08-31T11:06:48;3.38;;;1.23;;
13943;SDS011;7044;53.286;8.534;2023-08-31T11:09:19;4.70;;;1.00;;
13943;SDS011;7044;53.286;8.534;2023-08-31T11:11:46;2.58;;;1.10;;
13943;SDS011;7044;53.286;8.534;2023-08-31T11:14:14;3.92;;;1.35;;
13943;SDS011;7044;53.286;8.534;2023-08-31T11:19:10;2.08;;;1.15;;
13943;SDS011;7044;53.286;8.534;2023-08-31T11:21:37;3.03;;;1.20;;
13943;SDS011;7044;53.286;8.534;2023-08-31T11:24:04;2.83;;;1.30;;
13943;SDS011;7044;53.286;8.534;2023-08-31T11:26:33;1.02;;;1.00;;
13943;SDS011;7044;53.286;8.534;2023-08-31T11:29:00;3.70;;;1.20;;
13943;SDS011;7044;53.286;8.534;2023-08-31T11:31:27;2.40;;;1.20;;
13943;SDS011;7044;53.286;8.534;2023-08-31T11:33:54;1.45;;;0.90;;
13943;SDS011;7044;53.286;8.534;2023-08-31T11:36:23;1.52;;;0.95;;
13943;SDS011;7044;53.286;8.534;2023-08-31T11:38:51;2.53;;;1.40;;
13943;SDS011;7044;53.286;8.534;2023-08-31T11:41:18;2.83;;;1.23;;
13943;SDS011;7044;53.286;8.534;2023-08-31T11:43:46;2.20;;;1.15;;
13943;SDS011;7044;53.286;8.534;2023-08-31T11:46:13;4.72;;;1.48;;
13943;SDS011;7044;53.286;8.534;2023-08-31T11:48:41;4.22;;;1.60;;
13943;SDS011;7044;53.286;8.534;2023-08-31T11:51:08;2.72;;;1.38;;
13943;SDS011;7044;53.286;8.534;2023-08-31T11:53:37;4.60;;;1.05;;
13943;SDS011;7044;53.286;8.534;2023-08-31T11:56:04;3.25;;;1.13;;
13943;SDS011;7044;53.286;8.534;2023-08-31T11:58:31;3.33;;;1.42;;
13943;SDS011;7044;53.286;8.534;2023-08-31T12:00:58;3.30;;;1.02;;
13943;SDS011;7044;53.286;8.534;2023-08-31T12:03:25;0.95;;;0.90;;
13943;SDS011;7044;53.286;8.534;2023-08-31T12:05:53;2.38;;;0.90;;
13943;SDS011;7044;53.286;8.534;2023-08-31T12:08:25;2.55;;;1.00;;
13943;SDS011;7044;53.286;8.534;2023-08-31T12:10:54;0.73;;;0.73;;
13943;SDS011;7044;53.286;8.534;2023-08-31T12:13:21;1.63;;;0.82;;
13943;SDS011;7044;53.286;8.534;2023-08-31T12:15:53;1.52;;;0.93;;
13943;SDS011;7044;53.286;8.534;2023-08-31T12:18:21;2.15;;;0.63;;
13943;SDS011;7044;53.286;8.534;2023-08-31T12:20:49;4.13;;;1.05;;
13943;SDS011;7044;53.286;8.534;2023-08-31T12:23:17;1.65;;;0.80;;
13943;SDS011;7044;53.286;8.534;2023-08-31T12:25:47;0.50;;;0.50;;
13943;SDS011;7044;53.286;8.534;2023-08-31T12:28:16;1.02;;;0.70;;
13943;SDS011;7044;53.286;8.534;2023-08-31T12:30:45;0.52;;;0.52;;
13943;SDS011;7044;53.286;8.534;2023-08-31T12:33:13;1.27;;;0.93;;
13943;SDS011;7044;53.286;8.534;2023-08-31T12:35:40;2.65;;;0.98;;
13943;SDS011;7044;53.286;8.534;2023-08-31T12:38:07;0.50;;;0.50;;
13943;SDS011;7044;53.286;8.534;2023-08-31T12:40:34;1.55;;;0.50;;
13943;SDS011;7044;53.286;8.534;2023-08-31T12:43:01;0.95;;;0.60;;
13943;SDS011;7044;53.286;8.534;2023-08-31T12:45:29;1.45;;;0.73;;
13943;SDS011;7044;53.286;8.534;2023-08-31T12:47:56;1.00;;;0.60;;
13943;SDS011;7044;53.286;8.534;2023-08-31T12:50:23;0.57;;;0.55;;
13943;SDS011;7044;53.286;8.534;2023-08-31T12:52:50;1.40;;;0.60;;
13943;SDS011;7044;53.286;8.534;2023-08-31T12:55:17;0.30;;;0.30;;
13943;SDS011;7044;53.286;8.534;2023-08-31T12:57:44;0.30;;;0.30;;
13943;SDS011;7044;53.286;8.534;2023-08-31T13:00:12;0.45;;;0.45;;
13943;SDS011;7044;53.286;8.534;2023-08-31T13:02:41;0.30;;;0.30;;
13943;SDS011;7044;53.286;8.534;2023-08-31T13:05:10;0.50;;;0.43;;
13943;SDS011;7044;53.286;8.534;2023-08-31T13:07:37;0.55;;;0.40;;
13943;SDS011;7044;53.286;8.534;2023-08-31T13:10:04;0.93;;;0.50;;
13943;SDS011;7044;53.286;8.534;2023-08-31T13:12:32;1.88;;;0.80;;
13943;SDS011;7044;53.286;8.534;2023-08-31T13:14:59;1.13;;;0.60;;
13943;SDS011;7044;53.286;8.534;2023-08-31T13:17:27;0.50;;;0.50;;
13943;SDS011;7044;53.286;8.534;2023-08-31T13:19:56;1.08;;;0.50;;
13943;SDS011;7044;53.286;8.534;2023-08-31T13:22:23;0.60;;;0.60;;
13943;SDS011;7044;53.286;8.534;2023-08-31T13:24:50;3.17;;;0.65;;
13943;SDS011;7044;53.286;8.534;2023-08-31T13:27:17;0.82;;;0.70;;
13943;SDS011;7044;53.286;8.534;2023-08-31T13:29:44;1.33;;;0.60;;
13943;SDS011;7044;53.286;8.534;2023-08-31T13:32:11;1.00;;;0.80;;
13943;SDS011;7044;53.286;8.534;2023-08-31T13:34:38;0.68;;;0.68;;
13943;SDS011;7044;53.286;8.534;2023-08-31T13:37:06;1.55;;;0.80;;
13943;SDS011;7044;53.286;8.534;2023-08-31T13:39:34;0.90;;;0.75;;
13943;SDS011;7044;53.286;8.534;2023-08-31T13:42:05;1.23;;;0.82;;
13943;SDS011;7044;53.286;8.534;2023-08-31T13:44:32;3.97;;;1.20;;
13943;SDS011;7044;53.286;8.534;2023-08-31T13:47:00;0.65;;;0.65;;
13943;SDS011;7044;53.286;8.534;2023-08-31T13:49:28;0.85;;;0.68;;
13943;SDS011;7044;53.286;8.534;2023-08-31T13:51:55;3.35;;;1.70;;
13943;SDS011;7044;53.286;8.534;2023-08-31T13:54:23;2.20;;;1.27;;
13943;SDS011;7044;53.286;8.534;2023-08-31T13:56:50;2.08;;;0.80;;
13943;SDS011;7044;53.286;8.534;2023-08-31T13:59:17;2.80;;;0.90;;
13943;SDS011;7044;53.286;8.534;2023-08-31T14:01:44;3.33;;;0.80;;
13943;SDS011;7044;53.286;8.534;2023-08-31T14:04:11;1.23;;;1.00;;
13943;SDS011;7044;53.286;8.534;2023-08-31T14:06:38;2.92;;;0.93;;
13943;SDS011;7044;53.286;8.534;2023-08-31T14:09:04;1.38;;;0.80;;
13943;SDS011;7044;53.286;8.534;2023-08-31T14:11:34;2.70;;;0.90;;
13943;SDS011;7044;53.286;8.534;2023-08-31T14:14:04;1.92;;;0.80;;
13943;SDS011;7044;53.286;8.534;2023-08-31T14:16:35;0.80;;;0.80;;
13943;SDS011;7044;53.286;8.534;2023-08-31T14:19:02;2.95;;;0.95;;
13943;SDS011;7044;53.286;8.534;2023-08-31T14:21:29;1.13;;;1.02;;
13943;SDS011;7044;53.286;8.534;2023-08-31T14:23:56;1.00;;;0.70;;
13943;SDS011;7044;53.286;8.534;2023-08-31T14:26:23;1.10;;;0.80;;
13943;SDS011;7044;53.286;8.534;2023-08-31T14:28:52;2.90;;;0.77;;
13943;SDS011;7044;53.286;8.534;2023-08-31T14:31:18;1.50;;;0.90;;
13943;SDS011;7044;53.286;8.534;2023-08-31T14:33:46;1.40;;;0.98;;
13943;SDS011;7044;53.286;8.534;2023-08-31T14:36:14;0.70;;;0.70;;
13943;SDS011;7044;53.286;8.534;2023-08-31T14:38:42;4.03;;;1.23;;
13943;SDS011;7044;53.286;8.534;2023-08-31T14:41:10;1.63;;;0.80;;
13943;SDS011;7044;53.286;8.534;2023-08-31T14:43:37;1.48;;;1.20;;
13943;SDS011;7044;53.286;8.534;2023-08-31T14:46:05;2.00;;;1.10;;
13943;SDS011;7044;53.286;8.534;2023-08-31T14:48:32;2.20;;;0.85;;
13943;SDS011;7044;53.286;8.534;2023-08-31T14:50:59;2.03;;;0.88;;
13943;SDS011;7044;53.286;8.534;2023-08-31T14:53:26;1.02;;;0.70;;
13943;SDS011;7044;53.286;8.534;2023-08-31T14:55:53;1.67;;;0.77;;
13943;SDS011;7044;53.286;8.534;2023-08-31T14:58:20;1.88;;;0.82;;
13943;SDS011;7044;53.286;8.534;2023-08-31T15:00:47;4.97;;;1.00;;
13943;SDS011;7044;53.286;8.534;2023-08-31T15:03:15;0.80;;;0.80;;
13943;SDS011;7044;53.286;8.534;2023-08-31T15:05:42;2.00;;;0.85;;
13943;SDS011;7044;53.286;8.534;2023-08-31T15:08:08;2.28;;;1.05;;
13943;SDS011;7044;53.286;8.534;2023-08-31T15:10:37;1.02;;;0.73;;